sensor_id;sensor_type;location;lat;lon;timestamp;temperature;humidity
48978;DHT22;34793;48.940;2.618;2022-07-29T00:01:24;25.60;53.70
48978;DHT22;34793;48.940;2.618;2022-07-29T00:03:50;25.20;54.60
48978;DHT22;34793;48.940;2.618;2022-07-29T00:06:15;25.20;55.10
48978;DHT22;34793;48.940;2.618;2022-07-29T00:08:41;24.50;56.30
48978;DHT22;34793;48.940;2.618;2022-07-29T00:11:06;24.40;56.50
48978;DHT22;34793;48.940;2.618;2022-07-29T00:13:32;24.70;56.30
48978;DHT22;34793;48.940;2.618;2022-07-29T00:15:57;25.00;55.50
48978;DHT22;34793;48.940;2.618;2022-07-29T00:18:23;24.90;55.30
48978;DHT22;34793;48.940;2.618;2022-07-29T00:20:48;25.10;54.60
48978;DHT22;34793;48.940;2.618;2022-07-29T00:23:14;25.20;54.30
48978;DHT22;34793;48.940;2.618;2022-07-29T00:25:39;25.20;54.60
48978;DHT22;34793;48.940;2.618;2022-07-29T00:28:05;25.20;54.70
48978;DHT22;34793;48.940;2.618;2022-07-29T00:30:30;25.20;54.20
48978;DHT22;34793;48.940;2.618;2022-07-29T00:32:56;25.10;54.60
48978;DHT22;34793;48.940;2.618;2022-07-29T00:35:22;25.00;54.90
48978;DHT22;34793;48.940;2.618;2022-07-29T00:38:06;25.20;55.00
48978;DHT22;34793;48.940;2.618;2022-07-29T00:40:31;25.30;54.70
48978;DHT22;34793;48.940;2.618;2022-07-29T00:42:57;25.20;55.00
48978;DHT22;34793;48.940;2.618;2022-07-29T00:45:22;25.20;55.70
48978;DHT22;34793;48.940;2.618;2022-07-29T00:47:48;25.10;55.20
48978;DHT22;34793;48.940;2.618;2022-07-29T00:50:13;25.10;55.50
48978;DHT22;34793;48.940;2.618;2022-07-29T00:52:40;25.20;55.10
48978;DHT22;34793;48.940;2.618;2022-07-29T00:55:07;24.90;56.00
48978;DHT22;34793;48.940;2.618;2022-07-29T00:57:33;25.00;56.00
48978;DHT22;34793;48.940;2.618;2022-07-29T00:59:58;24.50;56.40
48978;DHT22;34793;48.940;2.618;2022-07-29T01:02:24;24.60;56.00
48978;DHT22;34793;48.940;2.618;2022-07-29T01:04:49;24.50;56.40
48978;DHT22;34793;48.940;2.618;2022-07-29T01:07:16;24.50;57.30
48978;DHT22;34793;48.940;2.618;2022-07-29T01:09:42;24.50;56.80
48978;DHT22;34793;48.940;2.618;2022-07-29T01:12:08;24.40;57.40
48978;DHT22;34793;48.940;2.618;2022-07-29T01:14:34;24.40;56.80
48978;DHT22;34793;48.940;2.618;2022-07-29T01:17:02;24.60;56.70
48978;DHT22;34793;48.940;2.618;2022-07-29T01:30:14;24.60;56.30
48978;DHT22;34793;48.940;2.618;2022-07-29T01:32:40;24.50;56.40
48978;DHT22;34793;48.940;2.618;2022-07-29T01:35:08;24.60;56.50
48978;DHT22;34793;48.940;2.618;2022-07-29T01:40:24;24.50;56.30
48978;DHT22;34793;48.940;2.618;2022-07-29T01:42:54;24.30;56.90
48978;DHT22;34793;48.940;2.618;2022-07-29T01:45:56;24.40;56.70
48978;DHT22;34793;48.940;2.618;2022-07-29T01:51:02;24.40;56.40
48978;DHT22;34793;48.940;2.618;2022-07-29T01:53:31;24.40;56.30
48978;DHT22;34793;48.940;2.618;2022-07-29T01:55:58;24.30;57.30
48978;DHT22;34793;48.940;2.618;2022-07-29T01:58:25;24.30;56.70
48978;DHT22;34793;48.940;2.618;2022-07-29T02:00:51;24.30;57.60
48978;DHT22;34793;48.940;2.618;2022-07-29T02:03:17;24.30;56.80
48978;DHT22;34793;48.940;2.618;2022-07-29T02:05:43;24.20;57.10
48978;DHT22;34793;48.940;2.618;2022-07-29T02:08:10;24.30;56.80
48978;DHT22;34793;48.940;2.618;2022-07-29T02:10:36;24.40;56.70
48978;DHT22;34793;48.940;2.618;2022-07-29T02:13:02;24.40;57.70
48978;DHT22;34793;48.940;2.618;2022-07-29T02:15:29;24.40;57.30
48978;DHT22;34793;48.940;2.618;2022-07-29T02:18:04;24.30;56.70
48978;DHT22;34793;48.940;2.618;2022-07-29T02:20:30;24.40;56.40
48978;DHT22;34793;48.940;2.618;2022-07-29T02:22:57;24.40;56.50
48978;DHT22;34793;48.940;2.618;2022-07-29T02:25:23;24.30;56.70
48978;DHT22;34793;48.940;2.618;2022-07-29T02:27:49;24.30;56.80
48978;DHT22;34793;48.940;2.618;2022-07-29T02:30:15;24.10;57.40
48978;DHT22;34793;48.940;2.618;2022-07-29T02:32:42;24.10;57.20
48978;DHT22;34793;48.940;2.618;2022-07-29T02:35:08;24.10;57.90
48978;DHT22;34793;48.940;2.618;2022-07-29T02:37:35;24.20;57.80
48978;DHT22;34793;48.940;2.618;2022-07-29T02:40:01;24.00;57.60
48978;DHT22;34793;48.940;2.618;2022-07-29T02:42:27;24.00;57.50
48978;DHT22;34793;48.940;2.618;2022-07-29T02:44:54;23.90;57.70
48978;DHT22;34793;48.940;2.618;2022-07-29T02:48:04;23.90;57.50
48978;DHT22;34793;48.940;2.618;2022-07-29T02:55:43;23.90;57.50
48978;DHT22;34793;48.940;2.618;2022-07-29T03:00:38;23.90;57.50
48978;DHT22;34793;48.940;2.618;2022-07-29T03:03:06;23.90;57.50
48978;DHT22;34793;48.940;2.618;2022-07-29T03:05:32;23.80;58.10
48978;DHT22;34793;48.940;2.618;2022-07-29T03:07:58;23.80;57.70
48978;DHT22;34793;48.940;2.618;2022-07-29T03:10:25;23.90;58.20
48978;DHT22;34793;48.940;2.618;2022-07-29T03:12:51;23.90;58.50
48978;DHT22;34793;48.940;2.618;2022-07-29T03:15:16;23.90;58.20
48978;DHT22;34793;48.940;2.618;2022-07-29T03:17:42;23.80;58.20
48978;DHT22;34793;48.940;2.618;2022-07-29T03:20:08;23.80;58.60
48978;DHT22;34793;48.940;2.618;2022-07-29T03:22:38;23.70;58.60
48978;DHT22;34793;48.940;2.618;2022-07-29T03:25:09;23.70;58.40
48978;DHT22;34793;48.940;2.618;2022-07-29T03:27:35;23.70;58.60
48978;DHT22;34793;48.940;2.618;2022-07-29T03:30:00;23.60;58.90
48978;DHT22;34793;48.940;2.618;2022-07-29T03:32:26;23.60;58.70
48978;DHT22;34793;48.940;2.618;2022-07-29T03:34:51;23.60;58.70
48978;DHT22;34793;48.940;2.618;2022-07-29T03:37:17;23.50;58.90
48978;DHT22;34793;48.940;2.618;2022-07-29T03:39:42;23.50;58.90
48978;DHT22;34793;48.940;2.618;2022-07-29T03:42:08;23.50;58.80
48978;DHT22;34793;48.940;2.618;2022-07-29T03:44:36;23.60;58.70
48978;DHT22;34793;48.940;2.618;2022-07-29T03:47:02;23.60;58.60
48978;DHT22;34793;48.940;2.618;2022-07-29T03:49:29;23.60;58.70
48978;DHT22;34793;48.940;2.618;2022-07-29T03:51:56;23.40;59.10
48978;DHT22;34793;48.940;2.618;2022-07-29T03:54:22;23.40;59.30
48978;DHT22;34793;48.940;2.618;2022-07-29T03:56:48;23.30;59.70
48978;DHT22;34793;48.940;2.618;2022-07-29T03:59:14;23.40;59.40
48978;DHT22;34793;48.940;2.618;2022-07-29T04:01:41;23.20;60.00
48978;DHT22;34793;48.940;2.618;2022-07-29T04:04:06;23.20;60.00
48978;DHT22;34793;48.940;2.618;2022-07-29T04:06:39;23.30;59.70
48978;DHT22;34793;48.940;2.618;2022-07-29T04:09:05;23.20;59.60
48978;DHT22;34793;48.940;2.618;2022-07-29T04:11:30;23.20;59.30
48978;DHT22;34793;48.940;2.618;2022-07-29T04:13:56;23.20;59.40
48978;DHT22;34793;48.940;2.618;2022-07-29T04:16:21;23.30;60.50
48978;DHT22;34793;48.940;2.618;2022-07-29T04:18:47;23.40;60.10
48978;DHT22;34793;48.940;2.618;2022-07-29T04:21:12;23.40;61.00
48978;DHT22;34793;48.940;2.618;2022-07-29T04:23:38;23.40;60.10
48978;DHT22;34793;48.940;2.618;2022-07-29T04:26:03;23.40;59.80
48978;DHT22;34793;48.940;2.618;2022-07-29T04:28:28;23.30;60.00
48978;DHT22;34793;48.940;2.618;2022-07-29T04:30:54;23.40;60.80
48978;DHT22;34793;48.940;2.618;2022-07-29T04:33:19;23.40;59.70
48978;DHT22;34793;48.940;2.618;2022-07-29T04:35:45;23.40;59.70
48978;DHT22;34793;48.940;2.618;2022-07-29T04:38:10;23.50;59.40
48978;DHT22;34793;48.940;2.618;2022-07-29T04:40:36;23.40;59.30
48978;DHT22;34793;48.940;2.618;2022-07-29T04:43:02;23.40;59.80
48978;DHT22;34793;48.940;2.618;2022-07-29T04:45:27;23.40;59.40
48978;DHT22;34793;48.940;2.618;2022-07-29T04:47:53;23.40;59.40
48978;DHT22;34793;48.940;2.618;2022-07-29T04:50:19;23.50;59.20
48978;DHT22;34793;48.940;2.618;2022-07-29T04:52:44;23.50;58.80
48978;DHT22;34793;48.940;2.618;2022-07-29T04:55:10;23.50;59.40
48978;DHT22;34793;48.940;2.618;2022-07-29T04:57:35;23.60;59.30
48978;DHT22;34793;48.940;2.618;2022-07-29T05:00:01;23.70;59.20
48978;DHT22;34793;48.940;2.618;2022-07-29T05:02:26;23.80;59.10
48978;DHT22;34793;48.940;2.618;2022-07-29T05:04:52;23.70;59.10
48978;DHT22;34793;48.940;2.618;2022-07-29T05:07:17;23.80;59.10
48978;DHT22;34793;48.940;2.618;2022-07-29T05:09:43;23.80;59.30
48978;DHT22;34793;48.940;2.618;2022-07-29T05:12:09;23.90;59.10
48978;DHT22;34793;48.940;2.618;2022-07-29T05:14:35;23.90;59.30
48978;DHT22;34793;48.940;2.618;2022-07-29T05:17:00;24.00;59.30
48978;DHT22;34793;48.940;2.618;2022-07-29T05:19:26;24.10;59.40
48978;DHT22;34793;48.940;2.618;2022-07-29T05:21:51;24.10;59.50
48978;DHT22;34793;48.940;2.618;2022-07-29T05:24:16;24.20;59.30
48978;DHT22;34793;48.940;2.618;2022-07-29T05:26:42;24.20;62.00
48978;DHT22;34793;48.940;2.618;2022-07-29T05:29:08;24.10;62.20
48978;DHT22;34793;48.940;2.618;2022-07-29T05:31:33;24.10;62.30
48978;DHT22;34793;48.940;2.618;2022-07-29T05:33:59;24.20;62.40
48978;DHT22;34793;48.940;2.618;2022-07-29T05:36:24;24.30;62.00
48978;DHT22;34793;48.940;2.618;2022-07-29T05:38:50;24.30;63.30
48978;DHT22;34793;48.940;2.618;2022-07-29T05:41:17;24.30;63.10
48978;DHT22;34793;48.940;2.618;2022-07-29T05:43:43;24.40;62.70
48978;DHT22;34793;48.940;2.618;2022-07-29T05:46:08;24.60;61.20
48978;DHT22;34793;48.940;2.618;2022-07-29T05:48:34;24.80;60.50
48978;DHT22;34793;48.940;2.618;2022-07-29T05:50:59;24.90;59.90
48978;DHT22;34793;48.940;2.618;2022-07-29T05:53:25;24.90;59.70
48978;DHT22;34793;48.940;2.618;2022-07-29T05:55:51;25.10;59.40
48978;DHT22;34793;48.940;2.618;2022-07-29T05:58:17;25.40;58.90
48978;DHT22;34793;48.940;2.618;2022-07-29T06:00:43;25.30;59.30
48978;DHT22;34793;48.940;2.618;2022-07-29T06:03:08;25.50;59.50
48978;DHT22;34793;48.940;2.618;2022-07-29T06:05:34;25.60;59.50
48978;DHT22;34793;48.940;2.618;2022-07-29T06:07:59;25.80;59.20
48978;DHT22;34793;48.940;2.618;2022-07-29T06:10:25;26.10;59.00
48978;DHT22;34793;48.940;2.618;2022-07-29T06:12:52;26.20;59.30
48978;DHT22;34793;48.940;2.618;2022-07-29T06:15:17;26.40;58.70
48978;DHT22;34793;48.940;2.618;2022-07-29T06:17:43;26.40;58.40
48978;DHT22;34793;48.940;2.618;2022-07-29T06:20:08;26.60;59.00
48978;DHT22;34793;48.940;2.618;2022-07-29T06:22:34;26.60;57.50
48978;DHT22;34793;48.940;2.618;2022-07-29T06:25:00;26.60;57.80
48978;DHT22;34793;48.940;2.618;2022-07-29T06:27:26;26.60;57.80
48978;DHT22;34793;48.940;2.618;2022-07-29T06:29:51;26.60;57.40
48978;DHT22;34793;48.940;2.618;2022-07-29T06:32:17;26.30;57.70
48978;DHT22;34793;48.940;2.618;2022-07-29T06:34:42;26.60;57.90
48978;DHT22;34793;48.940;2.618;2022-07-29T06:37:08;26.80;57.90
48978;DHT22;34793;48.940;2.618;2022-07-29T06:39:34;27.00;58.80
48978;DHT22;34793;48.940;2.618;2022-07-29T06:42:01;27.20;58.80
48978;DHT22;34793;48.940;2.618;2022-07-29T06:47:30;27.40;59.80
48978;DHT22;34793;48.940;2.618;2022-07-29T06:49:55;27.60;57.40
48978;DHT22;34793;48.940;2.618;2022-07-29T06:52:21;27.70;57.80
48978;DHT22;34793;48.940;2.618;2022-07-29T06:54:47;27.70;56.80
48978;DHT22;34793;48.940;2.618;2022-07-29T06:57:13;27.60;56.60
48978;DHT22;34793;48.940;2.618;2022-07-29T06:59:38;27.90;57.00
48978;DHT22;34793;48.940;2.618;2022-07-29T07:02:04;28.00;56.00
48978;DHT22;34793;48.940;2.618;2022-07-29T07:04:29;27.90;56.10
48978;DHT22;34793;48.940;2.618;2022-07-29T07:06:55;28.20;56.10
48978;DHT22;34793;48.940;2.618;2022-07-29T07:09:21;28.50;56.40
48978;DHT22;34793;48.940;2.618;2022-07-29T07:11:46;28.40;55.00
48978;DHT22;34793;48.940;2.618;2022-07-29T07:14:12;28.60;54.80
48978;DHT22;34793;48.940;2.618;2022-07-29T07:16:37;28.80;55.00
48978;DHT22;34793;48.940;2.618;2022-07-29T07:19:03;29.00;55.40
48978;DHT22;34793;48.940;2.618;2022-07-29T07:21:28;29.20;56.50
48978;DHT22;34793;48.940;2.618;2022-07-29T07:23:54;29.60;56.50
48978;DHT22;34793;48.940;2.618;2022-07-29T07:26:19;29.90;57.30
48978;DHT22;34793;48.940;2.618;2022-07-29T07:28:45;30.10;54.80
48978;DHT22;34793;48.940;2.618;2022-07-29T07:31:10;30.30;53.80
48978;DHT22;34793;48.940;2.618;2022-07-29T07:33:36;30.80;54.30
48978;DHT22;34793;48.940;2.618;2022-07-29T07:36:02;31.20;53.70
48978;DHT22;34793;48.940;2.618;2022-07-29T07:38:27;31.50;53.30
48978;DHT22;34793;48.940;2.618;2022-07-29T07:40:53;31.90;52.40
48978;DHT22;34793;48.940;2.618;2022-07-29T07:43:18;32.30;51.30
48978;DHT22;34793;48.940;2.618;2022-07-29T07:45:44;32.40;50.90
48978;DHT22;34793;48.940;2.618;2022-07-29T07:48:09;32.60;51.80
48978;DHT22;34793;48.940;2.618;2022-07-29T07:50:35;32.90;50.30
48978;DHT22;34793;48.940;2.618;2022-07-29T07:53:01;33.10;51.30
48978;DHT22;34793;48.940;2.618;2022-07-29T07:55:27;33.40;50.20
48978;DHT22;34793;48.940;2.618;2022-07-29T07:57:53;33.80;51.00
48978;DHT22;34793;48.940;2.618;2022-07-29T08:00:19;34.00;49.40
48978;DHT22;34793;48.940;2.618;2022-07-29T08:02:44;34.00;50.30
48978;DHT22;34793;48.940;2.618;2022-07-29T08:05:10;34.20;51.20
48978;DHT22;34793;48.940;2.618;2022-07-29T08:07:37;34.20;49.60
48978;DHT22;34793;48.940;2.618;2022-07-29T08:10:02;34.30;49.80
48978;DHT22;34793;48.940;2.618;2022-07-29T08:12:28;34.60;49.20
48978;DHT22;34793;48.940;2.618;2022-07-29T08:14:53;34.90;49.50
48978;DHT22;34793;48.940;2.618;2022-07-29T08:17:19;34.90;47.60
48978;DHT22;34793;48.940;2.618;2022-07-29T08:19:44;34.60;49.20
48978;DHT22;34793;48.940;2.618;2022-07-29T08:22:10;34.70;49.50
48978;DHT22;34793;48.940;2.618;2022-07-29T08:24:36;35.20;48.50
48978;DHT22;34793;48.940;2.618;2022-07-29T08:27:21;35.50;48.20
48978;DHT22;34793;48.940;2.618;2022-07-29T08:29:46;35.80;48.70
48978;DHT22;34793;48.940;2.618;2022-07-29T08:32:12;35.90;46.20
48978;DHT22;34793;48.940;2.618;2022-07-29T08:34:37;35.80;48.70
48978;DHT22;34793;48.940;2.618;2022-07-29T08:37:03;36.10;47.10
48978;DHT22;34793;48.940;2.618;2022-07-29T08:39:30;36.50;48.00
48978;DHT22;34793;48.940;2.618;2022-07-29T08:41:56;36.70;46.40
48978;DHT22;34793;48.940;2.618;2022-07-29T08:44:21;36.90;45.60
48978;DHT22;34793;48.940;2.618;2022-07-29T08:46:50;37.40;46.40
48978;DHT22;34793;48.940;2.618;2022-07-29T08:49:16;37.90;44.60
48978;DHT22;34793;48.940;2.618;2022-07-29T08:51:42;38.00;45.70
48978;DHT22;34793;48.940;2.618;2022-07-29T08:54:08;38.20;44.60
48978;DHT22;34793;48.940;2.618;2022-07-29T08:56:34;38.40;43.50
48978;DHT22;34793;48.940;2.618;2022-07-29T08:59:02;38.70;43.10
48978;DHT22;34793;48.940;2.618;2022-07-29T09:01:28;38.70;42.90
48978;DHT22;34793;48.940;2.618;2022-07-29T09:03:55;38.30;42.40
48978;DHT22;34793;48.940;2.618;2022-07-29T09:06:21;38.40;41.00
48978;DHT22;34793;48.940;2.618;2022-07-29T09:08:47;38.10;41.50
48978;DHT22;34793;48.940;2.618;2022-07-29T09:11:13;38.20;41.70
48978;DHT22;34793;48.940;2.618;2022-07-29T09:13:39;38.20;43.70
48978;DHT22;34793;48.940;2.618;2022-07-29T09:16:05;38.90;42.10
48978;DHT22;34793;48.940;2.618;2022-07-29T09:21:00;39.00;41.20
48978;DHT22;34793;48.940;2.618;2022-07-29T09:24:04;38.90;41.40
48978;DHT22;34793;48.940;2.618;2022-07-29T09:26:30;39.00;41.50
48978;DHT22;34793;48.940;2.618;2022-07-29T09:28:56;39.10;40.10
48978;DHT22;34793;48.940;2.618;2022-07-29T09:31:41;38.90;40.50
48978;DHT22;34793;48.940;2.618;2022-07-29T09:34:07;39.00;42.00
48978;DHT22;34793;48.940;2.618;2022-07-29T09:36:43;39.40;40.70
48978;DHT22;34793;48.940;2.618;2022-07-29T09:39:09;39.50;39.30
48978;DHT22;34793;48.940;2.618;2022-07-29T09:41:44;39.30;41.70
48978;DHT22;34793;48.940;2.618;2022-07-29T09:44:10;39.20;40.90
48978;DHT22;34793;48.940;2.618;2022-07-29T09:46:36;39.10;40.70
48978;DHT22;34793;48.940;2.618;2022-07-29T09:49:11;39.30;41.00
48978;DHT22;34793;48.940;2.618;2022-07-29T09:51:38;39.70;42.10
48978;DHT22;34793;48.940;2.618;2022-07-29T09:54:22;39.70;41.30
48978;DHT22;34793;48.940;2.618;2022-07-29T09:56:48;40.30;39.80
48978;DHT22;34793;48.940;2.618;2022-07-29T09:59:14;40.30;40.20
48978;DHT22;34793;48.940;2.618;2022-07-29T10:01:39;40.30;39.80
48978;DHT22;34793;48.940;2.618;2022-07-29T10:04:05;40.10;40.00
48978;DHT22;34793;48.940;2.618;2022-07-29T10:06:30;39.40;39.80
48978;DHT22;34793;48.940;2.618;2022-07-29T10:09:11;39.80;40.60
48978;DHT22;34793;48.940;2.618;2022-07-29T10:11:37;40.00;40.90
48978;DHT22;34793;48.940;2.618;2022-07-29T10:14:02;40.20;39.90
48978;DHT22;34793;48.940;2.618;2022-07-29T10:16:28;40.00;39.90
48978;DHT22;34793;48.940;2.618;2022-07-29T10:19:00;40.10;40.50
48978;DHT22;34793;48.940;2.618;2022-07-29T10:21:26;39.80;39.90
48978;DHT22;34793;48.940;2.618;2022-07-29T10:23:54;39.50;40.70
48978;DHT22;34793;48.940;2.618;2022-07-29T10:26:22;39.30;40.40
48978;DHT22;34793;48.940;2.618;2022-07-29T10:28:48;39.10;40.30
48978;DHT22;34793;48.940;2.618;2022-07-29T10:31:15;39.20;40.50
48978;DHT22;34793;48.940;2.618;2022-07-29T10:34:05;39.30;40.90
48978;DHT22;34793;48.940;2.618;2022-07-29T10:36:38;39.70;40.50
48978;DHT22;34793;48.940;2.618;2022-07-29T10:44:34;39.90;39.50
48978;DHT22;34793;48.940;2.618;2022-07-29T10:47:00;39.60;39.80
48978;DHT22;34793;48.940;2.618;2022-07-29T10:49:25;38.70;39.70
48978;DHT22;34793;48.940;2.618;2022-07-29T10:54:18;37.10;41.50
48978;DHT22;34793;48.940;2.618;2022-07-29T10:56:43;36.90;41.20
48978;DHT22;34793;48.940;2.618;2022-07-29T11:01:48;38.40;41.00
48978;DHT22;34793;48.940;2.618;2022-07-29T11:04:15;38.70;41.80
48978;DHT22;34793;48.940;2.618;2022-07-29T11:09:25;38.50;40.40
48978;DHT22;34793;48.940;2.618;2022-07-29T11:11:51;38.30;40.50
48978;DHT22;34793;48.940;2.618;2022-07-29T11:14:16;38.50;39.90
48978;DHT22;34793;48.940;2.618;2022-07-29T11:17:04;38.30;40.60
48978;DHT22;34793;48.940;2.618;2022-07-29T11:19:28;38.30;41.70
48978;DHT22;34793;48.940;2.618;2022-07-29T11:21:54;38.50;41.50
48978;DHT22;34793;48.940;2.618;2022-07-29T11:24:26;38.20;41.80
48978;DHT22;34793;48.940;2.618;2022-07-29T11:29:48;38.40;41.00
48978;DHT22;34793;48.940;2.618;2022-07-29T11:32:14;38.70;41.60
48978;DHT22;34793;48.940;2.618;2022-07-29T11:34:41;38.90;42.30
48978;DHT22;34793;48.940;2.618;2022-07-29T11:39:41;39.40;41.20
48978;DHT22;34793;48.940;2.618;2022-07-29T11:47:33;37.90;42.20
48978;DHT22;34793;48.940;2.618;2022-07-29T11:50:00;38.50;40.50
48978;DHT22;34793;48.940;2.618;2022-07-29T11:52:32;38.10;40.50
48978;DHT22;34793;48.940;2.618;2022-07-29T11:54:57;38.10;41.80
48978;DHT22;34793;48.940;2.618;2022-07-29T11:57:25;38.40;40.10
48978;DHT22;34793;48.940;2.618;2022-07-29T11:59:51;38.70;43.20
48978;DHT22;34793;48.940;2.618;2022-07-29T12:02:17;39.40;41.90
48978;DHT22;34793;48.940;2.618;2022-07-29T12:04:48;38.10;40.00
48978;DHT22;34793;48.940;2.618;2022-07-29T12:07:15;36.80;40.90
48978;DHT22;34793;48.940;2.618;2022-07-29T12:09:48;36.50;42.10
48978;DHT22;34793;48.940;2.618;2022-07-29T12:12:15;36.30;42.70
48978;DHT22;34793;48.940;2.618;2022-07-29T12:14:41;36.80;42.40
48978;DHT22;34793;48.940;2.618;2022-07-29T12:17:24;37.40;42.80
48978;DHT22;34793;48.940;2.618;2022-07-29T12:19:51;37.90;42.50
48978;DHT22;34793;48.940;2.618;2022-07-29T12:22:24;38.00;41.00
48978;DHT22;34793;48.940;2.618;2022-07-29T12:24:49;38.20;42.80
48978;DHT22;34793;48.940;2.618;2022-07-29T12:27:16;37.50;41.20
48978;DHT22;34793;48.940;2.618;2022-07-29T12:29:42;37.10;41.10
48978;DHT22;34793;48.940;2.618;2022-07-29T12:32:07;37.00;41.90
48978;DHT22;34793;48.940;2.618;2022-07-29T12:34:34;37.80;42.20
48978;DHT22;34793;48.940;2.618;2022-07-29T12:36:59;37.90;40.30
48978;DHT22;34793;48.940;2.618;2022-07-29T12:39:26;38.40;41.30
48978;DHT22;34793;48.940;2.618;2022-07-29T12:41:53;38.80;41.20
48978;DHT22;34793;48.940;2.618;2022-07-29T12:44:18;39.20;41.20
48978;DHT22;34793;48.940;2.618;2022-07-29T12:46:44;38.60;41.10
48978;DHT22;34793;48.940;2.618;2022-07-29T12:49:20;39.50;40.20
48978;DHT22;34793;48.940;2.618;2022-07-29T12:51:46;39.40;39.80
48978;DHT22;34793;48.940;2.618;2022-07-29T12:54:13;38.80;41.60
48978;DHT22;34793;48.940;2.618;2022-07-29T12:56:40;38.50;40.30
48978;DHT22;34793;48.940;2.618;2022-07-29T13:01:38;38.10;41.00
48978;DHT22;34793;48.940;2.618;2022-07-29T13:04:03;38.30;40.30
48978;DHT22;34793;48.940;2.618;2022-07-29T13:06:33;38.50;39.70
48978;DHT22;34793;48.940;2.618;2022-07-29T13:09:06;38.40;39.70
48978;DHT22;34793;48.940;2.618;2022-07-29T13:11:37;38.80;39.80
48978;DHT22;34793;48.940;2.618;2022-07-29T13:14:03;38.80;40.30
48978;DHT22;34793;48.940;2.618;2022-07-29T13:16:29;38.90;39.40
48978;DHT22;34793;48.940;2.618;2022-07-29T13:19:04;38.60;40.10
48978;DHT22;34793;48.940;2.618;2022-07-29T13:21:30;38.70;41.30
48978;DHT22;34793;48.940;2.618;2022-07-29T13:23:55;38.90;40.90
48978;DHT22;34793;48.940;2.618;2022-07-29T13:26:21;38.60;40.30
48978;DHT22;34793;48.940;2.618;2022-07-29T13:28:46;38.70;40.00
48978;DHT22;34793;48.940;2.618;2022-07-29T13:31:12;38.60;40.30
48978;DHT22;34793;48.940;2.618;2022-07-29T13:33:37;38.40;40.20
48978;DHT22;34793;48.940;2.618;2022-07-29T13:36:03;38.40;40.20
48978;DHT22;34793;48.940;2.618;2022-07-29T13:38:28;38.60;39.90
48978;DHT22;34793;48.940;2.618;2022-07-29T13:40:54;38.30;39.90
48978;DHT22;34793;48.940;2.618;2022-07-29T13:43:19;38.30;40.30
48978;DHT22;34793;48.940;2.618;2022-07-29T13:48:48;38.70;40.30
48978;DHT22;34793;48.940;2.618;2022-07-29T13:51:13;38.80;40.70
48978;DHT22;34793;48.940;2.618;2022-07-29T13:53:39;39.10;40.90
48978;DHT22;34793;48.940;2.618;2022-07-29T13:56:04;39.00;40.00
48978;DHT22;34793;48.940;2.618;2022-07-29T13:58:31;38.60;40.30
48978;DHT22;34793;48.940;2.618;2022-07-29T14:00:58;38.40;39.90
48978;DHT22;34793;48.940;2.618;2022-07-29T14:03:23;38.20;40.30
48978;DHT22;34793;48.940;2.618;2022-07-29T14:05:49;38.00;40.20
48978;DHT22;34793;48.940;2.618;2022-07-29T14:08:15;38.10;41.10
48978;DHT22;34793;48.940;2.618;2022-07-29T14:10:40;38.40;40.50
48978;DHT22;34793;48.940;2.618;2022-07-29T14:13:06;38.70;40.10
48978;DHT22;34793;48.940;2.618;2022-07-29T14:15:31;38.80;40.10
48978;DHT22;34793;48.940;2.618;2022-07-29T14:17:57;38.90;39.80
48978;DHT22;34793;48.940;2.618;2022-07-29T14:20:22;38.60;39.60
48978;DHT22;34793;48.940;2.618;2022-07-29T14:22:48;38.40;39.80
48978;DHT22;34793;48.940;2.618;2022-07-29T14:25:13;38.50;41.00
48978;DHT22;34793;48.940;2.618;2022-07-29T14:27:39;38.80;39.90
48978;DHT22;34793;48.940;2.618;2022-07-29T14:30:05;38.80;39.90
48978;DHT22;34793;48.940;2.618;2022-07-29T14:32:31;38.90;39.10
48978;DHT22;34793;48.940;2.618;2022-07-29T14:34:56;38.80;39.70
48978;DHT22;34793;48.940;2.618;2022-07-29T14:37:22;38.70;39.40
48978;DHT22;34793;48.940;2.618;2022-07-29T14:39:47;38.40;39.90
48978;DHT22;34793;48.940;2.618;2022-07-29T14:42:13;38.50;40.10
48978;DHT22;34793;48.940;2.618;2022-07-29T14:44:39;38.70;40.20
48978;DHT22;34793;48.940;2.618;2022-07-29T14:47:04;38.30;40.10
48978;DHT22;34793;48.940;2.618;2022-07-29T14:49:30;38.50;40.20
48978;DHT22;34793;48.940;2.618;2022-07-29T14:51:55;38.20;40.10
48978;DHT22;34793;48.940;2.618;2022-07-29T14:54:21;38.10;39.70
48978;DHT22;34793;48.940;2.618;2022-07-29T14:56:46;37.30;40.30
48978;DHT22;34793;48.940;2.618;2022-07-29T14:59:14;37.30;40.10
48978;DHT22;34793;48.940;2.618;2022-07-29T15:01:40;36.60;40.40
48978;DHT22;34793;48.940;2.618;2022-07-29T15:04:05;36.70;40.70
48978;DHT22;34793;48.940;2.618;2022-07-29T15:06:31;36.80;41.10
48978;DHT22;34793;48.940;2.618;2022-07-29T15:09:08;36.70;41.40
48978;DHT22;34793;48.940;2.618;2022-07-29T15:11:34;37.40;41.30
48978;DHT22;34793;48.940;2.618;2022-07-29T15:13:59;37.70;40.20
48978;DHT22;34793;48.940;2.618;2022-07-29T15:16:25;37.80;41.70
48978;DHT22;34793;48.940;2.618;2022-07-29T15:18:50;37.00;40.40
48978;DHT22;34793;48.940;2.618;2022-07-29T15:21:16;37.10;40.50
48978;DHT22;34793;48.940;2.618;2022-07-29T15:23:41;37.10;40.80
48978;DHT22;34793;48.940;2.618;2022-07-29T15:26:07;37.30;41.00
48978;DHT22;34793;48.940;2.618;2022-07-29T15:28:33;37.60;41.80
48978;DHT22;34793;48.940;2.618;2022-07-29T15:30:58;37.80;39.90
48978;DHT22;34793;48.940;2.618;2022-07-29T15:33:24;37.50;40.30
48978;DHT22;34793;48.940;2.618;2022-07-29T15:35:50;37.40;41.00
48978;DHT22;34793;48.940;2.618;2022-07-29T15:38:16;36.80;40.70
48978;DHT22;34793;48.940;2.618;2022-07-29T15:40:41;37.00;40.90
48978;DHT22;34793;48.940;2.618;2022-07-29T15:43:08;36.50;40.60
48978;DHT22;34793;48.940;2.618;2022-07-29T15:45:35;36.50;40.80
48978;DHT22;34793;48.940;2.618;2022-07-29T15:48:00;36.30;40.70
48978;DHT22;34793;48.940;2.618;2022-07-29T15:50:26;36.70;41.20
48978;DHT22;34793;48.940;2.618;2022-07-29T15:52:51;36.80;41.50
48978;DHT22;34793;48.940;2.618;2022-07-29T15:55:17;37.00;41.70
48978;DHT22;34793;48.940;2.618;2022-07-29T15:57:43;37.30;41.20
48978;DHT22;34793;48.940;2.618;2022-07-29T16:00:08;37.00;41.00
48978;DHT22;34793;48.940;2.618;2022-07-29T16:02:34;36.20;41.40
48978;DHT22;34793;48.940;2.618;2022-07-29T16:05:00;36.50;41.00
48978;DHT22;34793;48.940;2.618;2022-07-29T16:07:25;36.70;40.60
48978;DHT22;34793;48.940;2.618;2022-07-29T16:09:51;36.60;41.30
48978;DHT22;34793;48.940;2.618;2022-07-29T16:12:16;36.80;41.30
48978;DHT22;34793;48.940;2.618;2022-07-29T16:14:42;36.70;41.50
48978;DHT22;34793;48.940;2.618;2022-07-29T16:17:08;36.10;41.40
48978;DHT22;34793;48.940;2.618;2022-07-29T16:19:33;36.50;41.60
48978;DHT22;34793;48.940;2.618;2022-07-29T16:21:59;36.30;41.90
48978;DHT22;34793;48.940;2.618;2022-07-29T16:24:24;37.00;42.30
48978;DHT22;34793;48.940;2.618;2022-07-29T16:26:54;37.30;40.90